sensor_id;sensor_type;location;lat;lon;timestamp;P1;durP1;ratioP1;P2;durP2;ratioP2
67749;SDS011;54550;48.838;8.828;2024-02-15T16:04:31;3.60;;;1.50;;
67749;SDS011;54550;48.838;8.828;2024-02-15T16:06:56;3.05;;;1.40;;
67749;SDS011;54550;48.838;8.828;2024-02-15T16:09:22;4.35;;;1.20;;
67749;SDS011;54550;48.838;8.828;2024-02-15T16:11:48;2.05;;;1.00;;
67749;SDS011;54550;48.838;8.828;2024-02-15T16:14:14;4.00;;;1.10;;
67749;SDS011;54550;48.838;8.828;2024-02-15T16:19:05;4.80;;;1.35;;
67749;SDS011;54550;48.838;8.828;2024-02-15T16:23:56;5.15;;;1.70;;
67749;SDS011;54550;48.838;8.828;2024-02-15T16:26:22;2.37;;;1.00;;
67749;SDS011;54550;48.838;8.828;2024-02-15T16:28:47;1.42;;;0.80;;
67749;SDS011;54550;48.838;8.828;2024-02-15T16:31:12;2.13;;;0.90;;
67749;SDS011;54550;48.838;8.828;2024-02-15T16:33:38;2.07;;;1.20;;
67749;SDS011;54550;48.838;8.828;2024-02-15T16:36:03;3.33;;;0.80;;
67749;SDS011;54550;48.838;8.828;2024-02-15T16:38:31;2.42;;;0.90;;
67749;SDS011;54550;48.838;8.828;2024-02-15T16:40:58;4.43;;;1.30;;
67749;SDS011;54550;48.838;8.828;2024-02-15T16:43:24;3.13;;;1.40;;
67749;SDS011;54550;48.838;8.828;2024-02-15T16:45:50;3.50;;;1.60;;
67749;SDS011;54550;48.838;8.828;2024-02-15T16:48:15;2.33;;;1.08;;
67749;SDS011;54550;48.838;8.828;2024-02-15T16:50:41;2.10;;;0.95;;
67749;SDS011;54550;48.838;8.828;2024-02-15T16:53:07;4.47;;;1.08;;
67749;SDS011;54550;48.838;8.828;2024-02-15T16:55:34;4.53;;;1.08;;
67749;SDS011;54550;48.838;8.828;2024-02-15T16:58:00;2.40;;;0.95;;
67749;SDS011;54550;48.838;8.828;2024-02-15T17:00:32;5.43;;;1.42;;
67749;SDS011;54550;48.838;8.828;2024-02-15T17:02:58;4.75;;;1.50;;
67749;SDS011;54550;48.838;8.828;2024-02-15T17:05:23;4.75;;;1.48;;
67749;SDS011;54550;48.838;8.828;2024-02-15T17:07:49;2.80;;;1.48;;
67749;SDS011;54550;48.838;8.828;2024-02-15T17:10:15;4.10;;;1.40;;
67749;SDS011;54550;48.838;8.828;2024-02-15T17:12:40;1.80;;;0.90;;
67749;SDS011;54550;48.838;8.828;2024-02-15T17:15:06;3.22;;;1.08;;
67749;SDS011;54550;48.838;8.828;2024-02-15T17:17:36;2.47;;;0.90;;
67749;SDS011;54550;48.838;8.828;2024-02-15T17:22:39;3.05;;;0.85;;
67749;SDS011;54550;48.838;8.828;2024-02-15T17:25:05;2.50;;;1.00;;
67749;SDS011;54550;48.838;8.828;2024-02-15T17:27:30;5.22;;;1.27;;
67749;SDS011;54550;48.838;8.828;2024-02-15T17:29:55;3.17;;;1.03;;
67749;SDS011;54550;48.838;8.828;2024-02-15T17:32:21;4.97;;;1.40;;
67749;SDS011;54550;48.838;8.828;2024-02-15T17:34:46;3.55;;;1.05;;
67749;SDS011;54550;48.838;8.828;2024-02-15T17:37:11;6.57;;;1.30;;
67749;SDS011;54550;48.838;8.828;2024-02-15T17:39:37;5.00;;;1.30;;
67749;SDS011;54550;48.838;8.828;2024-02-15T17:42:02;2.57;;;1.13;;
67749;SDS011;54550;48.838;8.828;2024-02-15T17:44:28;2.92;;;1.25;;
67749;SDS011;54550;48.838;8.828;2024-02-15T17:46:53;5.45;;;1.38;;
67749;SDS011;54550;48.838;8.828;2024-02-15T17:49:19;5.63;;;1.90;;
67749;SDS011;54550;48.838;8.828;2024-02-15T17:51:45;4.10;;;1.63;;
67749;SDS011;54550;48.838;8.828;2024-02-15T17:54:10;5.38;;;1.33;;
67749;SDS011;54550;48.838;8.828;2024-02-15T17:56:36;4.32;;;1.42;;
67749;SDS011;54550;48.838;8.828;2024-02-15T17:59:01;3.47;;;1.30;;
67749;SDS011;54550;48.838;8.828;2024-02-15T18:01:28;7.20;;;2.22;;
67749;SDS011;54550;48.838;8.828;2024-02-15T18:03:53;6.05;;;2.47;;
67749;SDS011;54550;48.838;8.828;2024-02-15T18:06:20;4.10;;;1.23;;
67749;SDS011;54550;48.838;8.828;2024-02-15T18:08:47;5.05;;;1.08;;
67749;SDS011;54550;48.838;8.828;2024-02-15T18:11:12;3.80;;;1.27;;
67749;SDS011;54550;48.838;8.828;2024-02-15T18:13:37;3.57;;;0.90;;
67749;SDS011;54550;48.838;8.828;2024-02-15T18:16:04;5.68;;;1.20;;
67749;SDS011;54550;48.838;8.828;2024-02-15T18:18:29;3.72;;;1.38;;
67749;SDS011;54550;48.838;8.828;2024-02-15T18:20:55;6.13;;;1.67;;
67749;SDS011;54550;48.838;8.828;2024-02-15T18:23:20;3.85;;;1.50;;
67749;SDS011;54550;48.838;8.828;2024-02-15T18:25:46;3.53;;;1.10;;
67749;SDS011;54550;48.838;8.828;2024-02-15T18:28:12;4.68;;;1.65;;
67749;SDS011;54550;48.838;8.828;2024-02-15T18:30:38;4.85;;;1.90;;
67749;SDS011;54550;48.838;8.828;2024-02-15T18:33:08;8.50;;;2.20;;
67749;SDS011;54550;48.838;8.828;2024-02-15T18:35:34;4.97;;;2.10;;
67749;SDS011;54550;48.838;8.828;2024-02-15T18:38:00;5.90;;;2.47;;
67749;SDS011;54550;48.838;8.828;2024-02-15T18:40:26;15.90;;;6.85;;
67749;SDS011;54550;48.838;8.828;2024-02-15T18:42:53;9.57;;;3.67;;
67749;SDS011;54550;48.838;8.828;2024-02-15T18:45:18;6.75;;;2.63;;
67749;SDS011;54550;48.838;8.828;2024-02-15T18:47:44;5.60;;;2.72;;
67749;SDS011;54550;48.838;8.828;2024-02-15T18:50:09;7.20;;;3.27;;
67749;SDS011;54550;48.838;8.828;2024-02-15T18:52:35;3.30;;;2.00;;
67749;SDS011;54550;48.838;8.828;2024-02-15T18:55:00;5.13;;;2.30;;
67749;SDS011;54550;48.838;8.828;2024-02-15T18:57:26;6.13;;;2.30;;
67749;SDS011;54550;48.838;8.828;2024-02-15T19:02:18;6.53;;;3.55;;
67749;SDS011;54550;48.838;8.828;2024-02-15T19:04:44;7.22;;;3.55;;
67749;SDS011;54550;48.838;8.828;2024-02-15T19:07:11;6.43;;;2.00;;
67749;SDS011;54550;48.838;8.828;2024-02-15T19:09:37;5.88;;;1.65;;
67749;SDS011;54550;48.838;8.828;2024-02-15T19:12:03;4.40;;;1.67;;
67749;SDS011;54550;48.838;8.828;2024-02-15T19:14:28;3.60;;;1.20;;
67749;SDS011;54550;48.838;8.828;2024-02-15T19:16:54;3.27;;;1.03;;
67749;SDS011;54550;48.838;8.828;2024-02-15T19:19:19;7.68;;;1.40;;
67749;SDS011;54550;48.838;8.828;2024-02-15T19:21:45;4.25;;;1.65;;
67749;SDS011;54550;48.838;8.828;2024-02-15T19:24:11;3.95;;;1.77;;
67749;SDS011;54550;48.838;8.828;2024-02-15T19:26:36;6.40;;;2.92;;
67749;SDS011;54550;48.838;8.828;2024-02-15T19:29:05;4.43;;;2.20;;
67749;SDS011;54550;48.838;8.828;2024-02-15T19:31:32;6.47;;;2.60;;
67749;SDS011;54550;48.838;8.828;2024-02-15T19:33:58;4.35;;;1.90;;
67749;SDS011;54550;48.838;8.828;2024-02-15T19:36:25;7.43;;;3.08;;
67749;SDS011;54550;48.838;8.828;2024-02-15T19:38:51;6.03;;;2.53;;
67749;SDS011;54550;48.838;8.828;2024-02-15T19:41:19;7.35;;;2.45;;
67749;SDS011;54550;48.838;8.828;2024-02-15T19:43:46;5.80;;;2.55;;
67749;SDS011;54550;48.838;8.828;2024-02-15T19:46:17;5.55;;;2.30;;
67749;SDS011;54550;48.838;8.828;2024-02-15T19:48:45;4.78;;;1.77;;
67749;SDS011;54550;48.838;8.828;2024-02-15T19:51:15;7.15;;;2.05;;
67749;SDS011;54550;48.838;8.828;2024-02-15T19:53:41;4.55;;;1.63;;
67749;SDS011;54550;48.838;8.828;2024-02-15T19:56:06;5.57;;;2.03;;
67749;SDS011;54550;48.838;8.828;2024-02-15T19:58:32;5.88;;;3.08;;
67749;SDS011;54550;48.838;8.828;2024-02-15T20:00:58;4.00;;;1.35;;
67749;SDS011;54550;48.838;8.828;2024-02-15T20:03:24;4.10;;;1.92;;
67749;SDS011;54550;48.838;8.828;2024-02-15T20:05:52;5.00;;;1.45;;
67749;SDS011;54550;48.838;8.828;2024-02-15T20:08:19;5.90;;;1.75;;
67749;SDS011;54550;48.838;8.828;2024-02-15T20:10:45;5.97;;;1.87;;
67749;SDS011;54550;48.838;8.828;2024-02-15T20:13:17;4.70;;;2.13;;
67749;SDS011;54550;48.838;8.828;2024-02-15T20:15:43;5.95;;;2.22;;
67749;SDS011;54550;48.838;8.828;2024-02-15T20:18:08;6.20;;;2.13;;
67749;SDS011;54550;48.838;8.828;2024-02-15T20:20:34;6.83;;;2.10;;
67749;SDS011;54550;48.838;8.828;2024-02-15T20:22:59;8.23;;;2.50;;
67749;SDS011;54550;48.838;8.828;2024-02-15T20:25:24;5.78;;;2.60;;
67749;SDS011;54550;48.838;8.828;2024-02-15T20:27:49;4.07;;;1.93;;
67749;SDS011;54550;48.838;8.828;2024-02-15T20:30:15;4.70;;;2.08;;
67749;SDS011;54550;48.838;8.828;2024-02-15T20:32:42;4.53;;;1.88;;
67749;SDS011;54550;48.838;8.828;2024-02-15T20:35:07;6.60;;;1.90;;
67749;SDS011;54550;48.838;8.828;2024-02-15T20:37:33;5.40;;;2.17;;
67749;SDS011;54550;48.838;8.828;2024-02-15T20:39:59;5.55;;;2.10;;
67749;SDS011;54550;48.838;8.828;2024-02-15T20:42:25;5.00;;;2.60;;
67749;SDS011;54550;48.838;8.828;2024-02-15T20:44:50;4.93;;;2.17;;
67749;SDS011;54550;48.838;8.828;2024-02-15T20:47:15;4.13;;;1.47;;
67749;SDS011;54550;48.838;8.828;2024-02-15T20:49:43;5.05;;;1.98;;
67749;SDS011;54550;48.838;8.828;2024-02-15T20:52:09;3.53;;;1.73;;
67749;SDS011;54550;48.838;8.828;2024-02-15T20:54:34;6.00;;;1.80;;
67749;SDS011;54550;48.838;8.828;2024-02-15T20:57:00;3.75;;;1.42;;
67749;SDS011;54550;48.838;8.828;2024-02-15T20:59:25;4.45;;;1.92;;
67749;SDS011;54550;48.838;8.828;2024-02-15T21:01:52;6.80;;;1.75;;
67749;SDS011;54550;48.838;8.828;2024-02-15T21:04:18;4.40;;;2.40;;
67749;SDS011;54550;48.838;8.828;2024-02-15T21:06:43;5.05;;;1.83;;
67749;SDS011;54550;48.838;8.828;2024-02-15T21:09:09;3.85;;;1.70;;
67749;SDS011;54550;48.838;8.828;2024-02-15T21:11:38;3.45;;;1.70;;
67749;SDS011;54550;48.838;8.828;2024-02-15T21:14:04;3.60;;;1.33;;
67749;SDS011;54550;48.838;8.828;2024-02-15T21:16:30;8.20;;;1.60;;
67749;SDS011;54550;48.838;8.828;2024-02-15T21:18:57;3.10;;;1.65;;
67749;SDS011;54550;48.838;8.828;2024-02-15T21:21:23;6.97;;;1.60;;
67749;SDS011;54550;48.838;8.828;2024-02-15T21:23:49;2.95;;;1.17;;
67749;SDS011;54550;48.838;8.828;2024-02-15T21:26:15;4.05;;;1.50;;
67749;SDS011;54550;48.838;8.828;2024-02-15T21:28:41;3.33;;;1.17;;
67749;SDS011;54550;48.838;8.828;2024-02-15T21:31:10;4.55;;;1.73;;
67749;SDS011;54550;48.838;8.828;2024-02-15T21:33:42;6.28;;;1.70;;
67749;SDS011;54550;48.838;8.828;2024-02-15T21:38:33;4.80;;;1.80;;
67749;SDS011;54550;48.838;8.828;2024-02-15T21:40:58;2.60;;;1.42;;
67749;SDS011;54550;48.838;8.828;2024-02-15T21:43:24;3.42;;;1.30;;
67749;SDS011;54550;48.838;8.828;2024-02-15T21:45:49;3.38;;;1.20;;
67749;SDS011;54550;48.838;8.828;2024-02-15T21:48:16;4.80;;;1.40;;
67749;SDS011;54550;48.838;8.828;2024-02-15T21:50:41;4.50;;;1.40;;
67749;SDS011;54550;48.838;8.828;2024-02-15T21:53:07;3.60;;;1.50;;
67749;SDS011;54550;48.838;8.828;2024-02-15T21:55:32;2.90;;;1.15;;
67749;SDS011;54550;48.838;8.828;2024-02-15T21:57:57;2.43;;;1.00;;
67749;SDS011;54550;48.838;8.828;2024-02-15T22:00:23;4.25;;;1.10;;
67749;SDS011;54550;48.838;8.828;2024-02-15T22:02:48;4.20;;;1.42;;
67749;SDS011;54550;48.838;8.828;2024-02-15T22:05:14;4.27;;;1.17;;
67749;SDS011;54550;48.838;8.828;2024-02-15T22:07:39;4.13;;;1.05;;
67749;SDS011;54550;48.838;8.828;2024-02-15T22:10:05;3.17;;;1.17;;
67749;SDS011;54550;48.838;8.828;2024-02-15T22:12:34;3.42;;;1.20;;
67749;SDS011;54550;48.838;8.828;2024-02-15T22:15:01;2.65;;;0.88;;
67749;SDS011;54550;48.838;8.828;2024-02-15T22:17:28;1.98;;;0.90;;
67749;SDS011;54550;48.838;8.828;2024-02-15T22:19:54;2.47;;;1.05;;
67749;SDS011;54550;48.838;8.828;2024-02-15T22:22:20;2.10;;;0.90;;
67749;SDS011;54550;48.838;8.828;2024-02-15T22:24:45;3.87;;;1.30;;
67749;SDS011;54550;48.838;8.828;2024-02-15T22:27:10;3.53;;;1.23;;
67749;SDS011;54550;48.838;8.828;2024-02-15T22:29:36;3.50;;;1.20;;
67749;SDS011;54550;48.838;8.828;2024-02-15T22:32:01;2.80;;;1.00;;
67749;SDS011;54550;48.838;8.828;2024-02-15T22:34:27;4.30;;;1.25;;
67749;SDS011;54550;48.838;8.828;2024-02-15T22:36:53;4.45;;;1.20;;
67749;SDS011;54550;48.838;8.828;2024-02-15T22:39:18;2.78;;;0.88;;
67749;SDS011;54550;48.838;8.828;2024-02-15T22:41:43;3.83;;;1.00;;
67749;SDS011;54550;48.838;8.828;2024-02-15T22:44:09;3.20;;;1.10;;
67749;SDS011;54550;48.838;8.828;2024-02-15T22:46:34;3.22;;;0.95;;
67749;SDS011;54550;48.838;8.828;2024-02-15T22:49:00;4.10;;;1.40;;
67749;SDS011;54550;48.838;8.828;2024-02-15T22:51:25;3.10;;;0.90;;
67749;SDS011;54550;48.838;8.828;2024-02-15T22:53:51;4.63;;;1.10;;
67749;SDS011;54550;48.838;8.828;2024-02-15T22:56:16;3.15;;;1.05;;
67749;SDS011;54550;48.838;8.828;2024-02-15T22:58:42;3.35;;;1.08;;
67749;SDS011;54550;48.838;8.828;2024-02-15T23:01:11;3.03;;;1.10;;
67749;SDS011;54550;48.838;8.828;2024-02-15T23:03:37;2.28;;;1.10;;
67749;SDS011;54550;48.838;8.828;2024-02-15T23:06:05;4.18;;;1.10;;
67749;SDS011;54550;48.838;8.828;2024-02-15T23:10:56;3.75;;;1.25;;
67749;SDS011;54550;48.838;8.828;2024-02-15T23:13:22;4.20;;;1.50;;
67749;SDS011;54550;48.838;8.828;2024-02-15T23:15:47;4.25;;;1.00;;
67749;SDS011;54550;48.838;8.828;2024-02-15T23:18:13;3.60;;;1.30;;
67749;SDS011;54550;48.838;8.828;2024-02-15T23:20:38;4.95;;;1.55;;
67749;SDS011;54550;48.838;8.828;2024-02-15T23:23:04;5.57;;;1.47;;
67749;SDS011;54550;48.838;8.828;2024-02-15T23:25:30;4.25;;;1.20;;
67749;SDS011;54550;48.838;8.828;2024-02-15T23:27:55;4.18;;;0.90;;
67749;SDS011;54550;48.838;8.828;2024-02-15T23:30:21;2.35;;;0.98;;
67749;SDS011;54550;48.838;8.828;2024-02-15T23:32:46;2.97;;;1.00;;
67749;SDS011;54550;48.838;8.828;2024-02-15T23:35:14;2.70;;;0.88;;
67749;SDS011;54550;48.838;8.828;2024-02-15T23:37:40;2.53;;;1.03;;
67749;SDS011;54550;48.838;8.828;2024-02-15T23:40:24;3.28;;;1.13;;
67749;SDS011;54550;48.838;8.828;2024-02-15T23:42:52;3.05;;;0.90;;
67749;SDS011;54550;48.838;8.828;2024-02-15T23:45:18;2.05;;;0.70;;
67749;SDS011;54550;48.838;8.828;2024-02-15T23:47:44;4.32;;;0.73;;
67749;SDS011;54550;48.838;8.828;2024-02-15T23:50:13;2.22;;;0.82;;
67749;SDS011;54550;48.838;8.828;2024-02-15T23:52:42;4.85;;;1.30;;
67749;SDS011;54550;48.838;8.828;2024-02-15T23:55:10;2.78;;;0.90;;
67749;SDS011;54550;48.838;8.828;2024-02-15T23:57:35;3.20;;;0.90;;
